METAR Data
IDs: Format: Raw Decoded Include TAF

Data at: 2153 UTC 08 Aug 2020

KLRO 082135Z AUTO 15007G12KT 10SM CLR 31/25 A3009 RMK AO2
KLRO 082115Z AUTO 15008KT 10SM CLR 32/25 A3009 RMK AO2
KLRO 082055Z AUTO 17007G13KT 120V190 10SM CLR 32/25 A3009 RMK AO2
KLRO 082035Z AUTO VRB06G11KT 10SM CLR 31/26 A3009 RMK AO2
KLRO 082015Z AUTO 17009KT 10SM CLR 32/25 A3009 RMK AO2
KLRO 081955Z AUTO 17009KT 10SM CLR 32/25 A3010 RMK AO2
KLRO 081935Z AUTO 15007KT 120V180 9SM CLR 32/25 A3010 RMK AO2
KLRO 081915Z AUTO 15011KT 10SM CLR 32/25 A3010 RMK AO2
KLRO 081855Z AUTO VRB06KT 10SM FEW032 FEW040 32/25 A3011 RMK AO2
KLRO 081835Z AUTO 15010KT 10SM SCT032 SCT040 31/26 A3012 RMK AO2
KLRO 081815Z AUTO VRB06KT 10SM SCT030 SCT035 32/26 A3012 RMK AO2
KLRO 081755Z AUTO 16006KT 10SM BKN029 BKN034 32/26 A3012 RMK AO2
KLRO 081735Z AUTO VRB04KT 10SM BKN028 BKN033 32/26 A3013 RMK AO2
KLRO 081715Z AUTO VRB05KT 10SM BKN028 BKN034 31/26 A3013 RMK AO2
KLRO 081655Z AUTO 15006KT 10SM SCT029 BKN034 31/26 A3014 RMK AO2
KLRO 081635Z AUTO VRB05KT 10SM SCT031 32/25 A3014 RMK AO2
KLRO 081615Z AUTO 00000KT 10SM FEW032 32/25 A3014 RMK AO2
KLRO 081555Z AUTO VRB05G10KT 10SM FEW033 31/25 A3014 RMK AO2
KLRO 081535Z AUTO VRB04KT 10SM FEW032 31/24 A3015 RMK AO2
KLRO 081515Z AUTO VRB05KT 10SM CLR 31/24 A3015 RMK AO2
KLRO 081455Z AUTO 00000KT 10SM CLR 30/24 A3015 RMK AO2
KLRO 081435Z AUTO 00000KT 10SM SCT029 30/24 A3015 RMK AO2
KLRO 081415Z AUTO VRB04KT 10SM BKN028 BKN033 30/24 A3015 RMK AO2 LTG DSNT NE
KLRO 081355Z AUTO 00000KT 10SM CLR 30/24 A3015 RMK AO2
KLRO 081335Z AUTO 00000KT 10SM CLR 29/24 A3015 RMK AO2
KLRO 081315Z AUTO 00000KT 10SM CLR 29/24 A3015 RMK AO2
KLRO 081255Z AUTO 00000KT 10SM CLR 28/25 A3015 RMK AO2
KLRO 081235Z AUTO 00000KT 9SM CLR 26/26 A3015 RMK AO2 LTG DSNT SE
KLRO 081215Z AUTO 00000KT 5SM BR CLR 25/25 A3015 RMK AO2 LTG DSNT SE
KLRO 081155Z AUTO 00000KT 6SM BR 24/24 A3015 RMK AO2
KLRO 081135Z AUTO 00000KT 3SM BR SCT050 24/24 A3014 RMK AO2
KLRO 081115Z AUTO 00000KT 2 1/2SM BR FEW049 24/24 A3013 RMK AO2
KLRO 081055Z AUTO 00000KT 5SM BR FEW017 FEW027 24/24 A3012 RMK AO2
KLRO 081035Z AUTO 00000KT 4SM BR BKN016 BKN027 24/24 A3012 RMK AO2
KLRO 081015Z AUTO 00000KT 7SM BKN015 BKN019 BKN047 24/24 A3011 RMK AO2 LTG DSNT E AND SE
KLRO 080955Z AUTO 00000KT 5SM BR BKN015 BKN022 24/24 A3011 RMK AO2 LTG DSNT E
KLRO 080935Z AUTO 00000KT 6SM BR 24/24 A3010 RMK AO2
KLRO 080915Z AUTO 00000KT 5SM BR FEW024 24/24 A3010 RMK AO2 LTG DSNT E
KLRO 080855Z AUTO 00000KT 4SM BR FEW025 24/24 A3010 RMK AO2 LTG DSNT E
KLRO 080835Z AUTO 00000KT 4SM BR SCT024 SCT029 24/24 A3010 RMK AO2
KLRO 080815Z AUTO 00000KT 7SM SCT024 BKN030 BKN038 24/24 A3010 RMK AO2 LTG DSNT NE AND E
KLRO 080755Z AUTO 00000KT 4SM VCTS BR CLR 24/24 A3009 RMK AO2 LTG DSNT NE AND E
KLRO 080735Z AUTO 00000KT 6SM BR FEW018 FEW027 FEW043 24/24 A3009 RMK AO2 LTG DSNT NE AND E
KLRO 080715Z AUTO 00000KT 5SM BR SCT019 BKN023 SCT045 24/24 A3010 RMK AO2 LTG DSNT NE AND E
KLRO 080655Z AUTO 00000KT 5SM BR FEW021 FEW048 24/24 A3010 RMK AO2 LTG DSNT E
KLRO 080635Z AUTO 00000KT 5SM BR CLR 24/24 A3011 RMK AO2 LTG DSNT E
KLRO 080615Z AUTO 00000KT 5SM VCTS BR CLR 24/24 A3011 RMK AO2 LTG DSNT E
KLRO 080555Z AUTO 00000KT 6SM VCTS BR FEW026 FEW032 24/24 A3011 RMK AO2 LTG DSNT NE-SE
KLRO 080535Z AUTO 00000KT 8SM VCTS BKN026 BKN032 BKN037 25/25 A3012 RMK AO2 LTG DSNT NE-SE
KLRO 080515Z AUTO 00000KT 10SM TS OVC026 24/24 A3013 RMK AO2 LTG DSNT NE AND E
KLRO 080455Z AUTO 00000KT 8SM VCTS OVC023 24/24 A3013 RMK AO2 LTG DSNT NE AND E
KLRO 080435Z AUTO 00000KT 7SM VCTS OVC025 25/25 A3012 RMK AO2 LTG DSNT NE AND E
KLRO 080415Z AUTO 00000KT 7SM VCTS BKN025 BKN031 25/25 A3012 RMK AO2 LTG DSNT NE
KLRO 080355Z AUTO 00000KT 6SM TS CLR 25/25 A3011 RMK AO2 LTG DSNT NE AND E
KLRO 080335Z AUTO 00000KT 4SM VCTS BR FEW022 SCT120 24/24 A3011 RMK AO2 LTG DSNT N AND NE
KLRO 080315Z AUTO 00000KT 3SM VCTS BR BKN023 BKN120 24/24 A3012 RMK AO2 LTG DSNT N AND NE
KLRO 080255Z AUTO 00000KT 5SM VCTS BR FEW021 24/24 A3012 RMK AO2 LTG DSNT N
KLRO 080235Z AUTO 00000KT 3SM BR FEW016 FEW022 FEW048 25/25 A3012 RMK AO2 LTG DSNT N AND NW
KLRO 080215Z AUTO 00000KT 6SM BR BKN018 BKN030 BKN048 24/24 A3011 RMK AO2 LTG DSNT NW
KLRO 080155Z AUTO 00000KT 7SM TS BKN020 BKN025 OVC033 24/24 A3011 RMK AO2 LTG DSNT NE AND NW P0022
KLRO 080135Z AUTO 00000KT 1 1/2SM VCTS RA SCT003 BKN022 OVC049 25/25 A3011 RMK AO2 LTG DSNT ALQDS
KLRO 080115Z AUTO VRB05KT 10SM FEW019 FEW026 SCT045 28/26 A3010 RMK AO2
KLRO 080055Z AUTO 00000KT 9SM FEW019 FEW025 FEW032 28/26 A3009 RMK AO2
KLRO 080035Z AUTO 19007KT 10SM CLR 28/26 A3008 RMK AO2
KLRO 080015Z AUTO 18007KT 9SM FEW023 FEW029 FEW046 28/26 A3007 RMK AO2
KLRO 072355Z AUTO 16005KT 9SM FEW019 SCT027 SCT032 29/26 A3006 RMK AO2
KLRO 072335Z AUTO 17008KT 9SM FEW018 FEW027 29/26 A3005 RMK AO2
KLRO 072315Z AUTO 17007G13KT 9SM FEW018 FEW026 FEW036 29/26 A3006 RMK AO2
KLRO 072255Z AUTO 18008KT 9SM FEW018 FEW025 FEW031 29/26 A3007 RMK AO2
KLRO 072235Z AUTO 17006KT 9SM FEW018 FEW024 FEW030 29/26 A3009 RMK AO2
KLRO 072215Z AUTO VRB04KT 9SM FEW019 SCT023 SCT028 29/26 A3008 RMK AO2
KLRO 072155Z AUTO 15006G12KT 9SM SCT020 30/26 A3006 RMK AO2
KLRO 072135Z AUTO 15009G14KT 100V180 9SM FEW021 30/26 A3006 RMK AO2
KLRO 072115Z AUTO 16010KT 9SM CLR 30/26 A3004 RMK AO2
KLRO 072055Z AUTO 18008G13KT 140V210 9SM CLR 31/26 A3003 RMK AO2
KLRO 072035Z AUTO 16009KT 9SM CLR 31/25 A3004 RMK AO2
KLRO 072015Z AUTO 16008G14KT 10SM CLR 31/25 A3004 RMK AO2
KLRO 071955Z AUTO 16009KT 9SM CLR 31/26 A3005 RMK AO2
KLRO 071935Z AUTO VRB05G11KT 9SM CLR 31/26 A3006 RMK AO2
KLRO 071915Z AUTO 15008KT 10SM CLR 31/26 A3006 RMK AO2
KLRO 071855Z AUTO 14007KT 070V170 9SM FEW021 31/26 A3007 RMK AO2
KLRO 071835Z AUTO VRB06KT 9SM FEW020 30/26 A3008 RMK AO2
KLRO 071815Z AUTO 13006KT 9SM CLR 30/26 A3009 RMK AO2
KLRO 071755Z AUTO 15008KT 10SM CLR 31/26 A3009 RMK AO2
KLRO 071735Z AUTO VRB05G10KT 9SM CLR 30/26 A3010 RMK AO2
KLRO 071715Z AUTO 14007KT 9SM FEW020 30/26 A3010 RMK AO2
KLRO 071655Z AUTO VRB03KT 10SM FEW019 30/26 A3010 RMK AO2
KLRO 071635Z AUTO VRB05KT 9SM CLR 30/26 A3010 RMK AO2
KLRO 071615Z AUTO VRB04KT 9SM CLR 30/26 A3010 RMK AO2
KLRO 071555Z AUTO VRB06KT 9SM CLR 30/26 A3010 RMK AO2
KLRO 071535Z AUTO 11005KT 9SM FEW021 30/26 A3010 RMK AO2
KLRO 071515Z AUTO 00000KT 10SM BKN020 30/25 A3011 RMK AO2
KLRO 071455Z AUTO 00000KT 9SM BKN017 29/26 A3011 RMK AO2
KLRO 071435Z AUTO 00000KT 9SM SCT016 SCT022 29/26 A3011 RMK AO2
KLRO 071415Z AUTO 00000KT 9SM FEW016 SCT022 28/25 A3011 RMK AO2
KLRO 071355Z AUTO 00000KT 9SM CLR 28/25 A3011 RMK AO2
KLRO 071335Z AUTO 00000KT 9SM FEW018 FEW041 28/25 A3010 RMK AO2
KLRO 071315Z AUTO 00000KT 9SM SCT017 SCT041 27/25 A3011 RMK AO2
KLRO 071255Z AUTO 00000KT 9SM BKN017 BKN024 27/25 A3010 RMK AO2
KLRO 071235Z AUTO 00000KT 9SM BKN018 BKN023 27/25 A3009 RMK AO2
KLRO 071215Z AUTO 00000KT 9SM SCT017 25/25 A3009 RMK AO2
KLRO 071155Z AUTO 00000KT 8SM FEW020 25/25 A3009 RMK AO2
KLRO 071135Z AUTO 00000KT 8SM BKN019 BKN028 BKN046 24/24 A3007 RMK AO2
KLRO 071115Z AUTO 00000KT 9SM BKN018 BKN030 OVC050 24/24 A3007 RMK AO2
KLRO 071055Z AUTO 00000KT 7SM SCT008 BKN019 OVC055 24/24 A3007 RMK AO2
KLRO 071035Z AUTO 00000KT 6SM BR OVC007 25/25 A3006 RMK AO2
KLRO 071015Z AUTO 00000KT 6SM BR FEW005 BKN010 OVC029 25/25 A3005 RMK AO2
KLRO 070955Z AUTO 00000KT 6SM BR BKN022 BKN029 OVC120 25/25 A3005 RMK AO2